aviador You're here:

KABY Decoded Metar

ALBANY in GA, USA
Report Time2017-06-24 16:53:00
UTC Time2017-06-24 17:14:18
Flight Rules vfr VFR
Wind240° at 07 Gusting to 16 kt
W.Decomp.*RWY 22: 6.5 kt HW 2.6 kt RCW
RWY 16: 1.0 kt HW 6.9 kt RCW
W.Rank240° ranks 7
Current wind is above 240° avg. (5.8)
Visibility9999 m
Phenomena:N/A
Clouds:Broken 036 Hf
Expected CloudBase > 4,000 ft AGL from Temp-Dew spread
Ceiling3,600 ft
Temp32°C (ISA +17)
Dew Point22°C (55% RH)
Heat Index35.6°C
QNH1018 hPa
Density Alt2,356 ft
Elevation190 ft
Report Wrong Elevation
Raw Report
METAR KABY 241653Z 24007G16KT 10SM BKN036 32/22 A3007 RMK AO2 SLP180
T03170222 $=

Extra information for KABY:More info

Metar Taf Metar & Taf Last 4 Metars F.Rules Stats Wind Profile Meteogram Temp Stats Airport Information Weather charts Add Link Nearby VenuesMetar ALERT Operation Metar Decoded Social comments

AIRNAV info for KABY